Nearby METAR Reports

 

LEVT - Vitoria, Spain
Distance from station: O 10km
Actualización: 04/03/2021 13:00
Muy nuboso
Muy nuboso
 Viento del OSO
Viento: OSO 9 km/h
Temperatura: 12°C
Rocío: 9°C
Humedad: 82%
Barómetro: 1022 hPa
Clouds: Muy nuboso
Visibility: 9 km
Cloud details: Few Clouds 427 m
Muy nuboso 610 m
2021/03/04 12:00 LEVT 041200Z 25005KT 9000 FEW014 BKN020 12/09 Q1022
LELO - Logrono/Agoncill, Spain
Distance from station: SSE 51km
Actualización: 04/03/2021 13:00
Muy nuboso
Muy nuboso
 Viento del E
Viento: E 11 km/h
Temperatura: 12°C
Rocío: 9°C
Humedad: 82%
Barómetro: 1023 hPa
Clouds: Muy nuboso
Visibility: 6 km
Cloud details: Few Clouds 305 m
Muy nuboso 701 m
2021/03/04 12:00 LELO 041200Z 09006KT 050V130 6000 FEW010 BKN023 12/09 Q1023
LEBB - Bilbao/Sondica, Spain
Distance from station: NNO 54km
Actualización: 04/03/2021 13:00
Despejado
Despejado
 Viento del SSE
Viento: SSE 7 km/h
Temperatura: 19°C
Rocío: 9°C
Humedad: 52%
Barómetro: 1021 hPa
Resumen: Despejado
Visibility: greater than 10 km
2021/03/04 12:00 LEBB 041200Z 15004KT 100V250 CAVOK 19/09 Q1021 NOSIG
 
LEPP - Pamplona/Noain, Spain
Distance from station: E 78km
Actualización: 04/03/2021 13:00
Muy nuboso
Muy nuboso
 Viento del E
Viento: E 4 km/h
Temperatura: 12°C
Rocío: 8°C
Humedad: 77%
Barómetro: 1022 hPa
Clouds: Muy nuboso
Visibility: 10 km
Cloud details: Muy nuboso 792 m
2021/03/04 12:00 LEPP 041200Z 10002KT 9999 BKN026 12/08 Q1022
LESO - San Sebastian/Fu, Spain
Distance from station: NE 85km
Actualización: 04/03/2021 13:00
Few Clouds
Few Clouds
 Viento del NNE
Viento: NNE 9 km/h
Temperatura: 16°C
Rocío: 9°C
Humedad: 63%
Barómetro: 1021 hPa
Clouds: Few Clouds
Visibility: 10 km
Cloud details: Few Clouds 1067 m
2021/03/04 12:00 LESO 041200Z 03005KT 360V060 9999 FEW035 16/09 Q1021
LEBG - Burgos/Villafria, Spain
Distance from station: SO 100km
Actualización: 04/03/2021 13:00
Few Clouds
Few Clouds
 Viento del NNE
Viento: NNE 13 km/h
Temperatura: 12°C
Rocío: 8°C
Humedad: 77%
Barómetro: 1021 hPa
Clouds: Few Clouds
Visibility: 10 km
Cloud details: Few Clouds 244 m
2021/03/04 12:00 LEBG 041200Z 03007KT 9999 FEW008 12/08 Q1021
 
LFBZ - Biarritz/Anglet, France
Distance from station: NE 111km
Actualización: 04/03/2021 13:00
Despejado
Despejado
 Viento del N
Viento: N 9 km/h
Temperatura: 17°C
Rocío: 9°C
Humedad: 59%
Barómetro: 1021 hPa
Resumen: Despejado
Visibility: greater than 10 km
2021/03/04 12:00 LFBZ 041200Z AUTO 01005KT 330V070 CAVOK 17/09 Q1021 TEMPO FEW035TCU
LEXJ - Santander/Paraya, Spain
Distance from station: ONO 117km
Actualización: 04/03/2021 13:00
Despejado
Despejado
 Viento del NE
Viento: NE 9 km/h
Temperatura: 15°C
Rocío: 12°C
Humedad: 82%
Barómetro: 1021 hPa
Resumen: Despejado
Visibility: greater than 10 km
2021/03/04 12:00 LEXJ 041200Z 05005KT 020V090 CAVOK 15/12 Q1021